sensor_id;sensor_type;location;lat;lon;timestamp;pressure;altitude;pressure_sealevel;temperature;humidity
78198;BME280;67472;51.554;7.812;2023-08-21T00:02:28;101592.38;;;18.32;100.00
78198;BME280;67472;51.554;7.812;2023-08-21T00:05:15;101598.94;;;18.38;100.00
78198;BME280;67472;51.554;7.812;2023-08-21T00:08:01;101605.19;;;18.46;100.00
78198;BME280;67472;51.554;7.812;2023-08-21T00:10:47;101596.75;;;18.51;100.00
78198;BME280;67472;51.554;7.812;2023-08-21T00:13:33;101596.34;;;18.46;100.00
78198;BME280;67472;51.554;7.812;2023-08-21T00:16:19;101591.41;;;18.51;100.00
78198;BME280;67472;51.554;7.812;2023-08-21T00:19:06;101583.53;;;18.49;100.00
78198;BME280;67472;51.554;7.812;2023-08-21T00:21:52;101585.44;;;18.22;100.00
78198;BME280;67472;51.554;7.812;2023-08-21T00:24:38;101593.31;;;18.05;100.00
78198;BME280;67472;51.554;7.812;2023-08-21T00:27:24;101594.44;;;17.85;100.00
78198;BME280;67472;51.554;7.812;2023-08-21T00:30:13;101594.16;;;17.88;100.00
78198;BME280;67472;51.554;7.812;2023-08-21T00:33:00;101599.97;;;18.01;100.00
78198;BME280;67472;51.554;7.812;2023-08-21T00:35:48;101594.22;;;17.96;100.00
78198;BME280;67472;51.554;7.812;2023-08-21T00:38:34;101605.00;;;17.87;100.00
78198;BME280;67472;51.554;7.812;2023-08-21T00:41:20;101607.28;;;17.99;100.00
78198;BME280;67472;51.554;7.812;2023-08-21T00:44:06;101609.53;;;18.04;100.00
78198;BME280;67472;51.554;7.812;2023-08-21T00:46:52;101606.44;;;17.81;100.00
78198;BME280;67472;51.554;7.812;2023-08-21T00:49:38;101622.88;;;17.86;100.00
78198;BME280;67472;51.554;7.812;2023-08-21T00:52:26;101627.63;;;17.92;100.00
78198;BME280;67472;51.554;7.812;2023-08-21T00:55:13;101634.31;;;17.79;100.00
78198;BME280;67472;51.554;7.812;2023-08-21T00:58:00;101628.19;;;17.69;100.00
78198;BME280;67472;51.554;7.812;2023-08-21T01:00:49;101641.59;;;17.86;100.00
78198;BME280;67472;51.554;7.812;2023-08-21T01:03:38;101646.63;;;17.89;100.00
78198;BME280;67472;51.554;7.812;2023-08-21T01:06:24;101648.00;;;17.76;100.00
78198;BME280;67472;51.554;7.812;2023-08-21T01:09:17;101644.38;;;17.67;100.00
78198;BME280;67472;51.554;7.812;2023-08-21T01:12:11;101637.34;;;17.66;100.00
78198;BME280;67472;51.554;7.812;2023-08-21T01:15:04;101634.81;;;17.65;100.00
78198;BME280;67472;51.554;7.812;2023-08-21T01:17:51;101637.88;;;17.70;100.00
78198;BME280;67472;51.554;7.812;2023-08-21T01:20:39;101639.94;;;17.58;100.00
78198;BME280;67472;51.554;7.812;2023-08-21T01:23:34;101648.59;;;17.70;100.00
78198;BME280;67472;51.554;7.812;2023-08-21T01:26:20;101642.97;;;17.63;100.00
78198;BME280;67472;51.554;7.812;2023-08-21T01:29:06;101646.75;;;17.70;100.00
78198;BME280;67472;51.554;7.812;2023-08-21T01:32:01;101646.47;;;17.91;100.00
78198;BME280;67472;51.554;7.812;2023-08-21T01:34:51;101638.84;;;17.96;100.00
78198;BME280;67472;51.554;7.812;2023-08-21T01:37:41;101640.38;;;17.98;100.00
78198;BME280;67472;51.554;7.812;2023-08-21T01:40:29;101636.69;;;17.99;100.00
78198;BME280;67472;51.554;7.812;2023-08-21T01:43:18;101629.59;;;17.90;100.00
78198;BME280;67472;51.554;7.812;2023-08-21T01:46:06;101630.50;;;17.81;100.00
78198;BME280;67472;51.554;7.812;2023-08-21T01:48:52;101633.06;;;17.73;100.00
78198;BME280;67472;51.554;7.812;2023-08-21T01:51:38;101627.13;;;17.79;100.00
78198;BME280;67472;51.554;7.812;2023-08-21T01:54:24;101620.63;;;17.64;100.00
78198;BME280;67472;51.554;7.812;2023-08-21T01:57:12;101620.03;;;17.70;100.00
78198;BME280;67472;51.554;7.812;2023-08-21T01:59:58;101625.75;;;17.75;100.00
78198;BME280;67472;51.554;7.812;2023-08-21T02:02:44;101629.88;;;17.70;100.00
78198;BME280;67472;51.554;7.812;2023-08-21T02:05:30;101638.47;;;17.64;100.00
78198;BME280;67472;51.554;7.812;2023-08-21T02:08:17;101640.31;;;17.53;100.00
78198;BME280;67472;51.554;7.812;2023-08-21T02:11:03;101632.91;;;17.47;100.00
78198;BME280;67472;51.554;7.812;2023-08-21T02:13:51;101633.06;;;17.46;100.00
78198;BME280;67472;51.554;7.812;2023-08-21T02:16:37;101623.75;;;17.23;100.00
78198;BME280;67472;51.554;7.812;2023-08-21T02:19:25;101631.28;;;17.27;100.00
78198;BME280;67472;51.554;7.812;2023-08-21T02:22:11;101633.06;;;17.09;100.00
78198;BME280;67472;51.554;7.812;2023-08-21T02:24:57;101624.34;;;17.07;100.00
78198;BME280;67472;51.554;7.812;2023-08-21T02:27:43;101629.75;;;16.98;100.00
78198;BME280;67472;51.554;7.812;2023-08-21T02:30:30;101631.28;;;16.90;100.00
78198;BME280;67472;51.554;7.812;2023-08-21T02:33:16;101638.78;;;16.77;100.00
78198;BME280;67472;51.554;7.812;2023-08-21T02:36:03;101648.56;;;16.86;100.00
78198;BME280;67472;51.554;7.812;2023-08-21T02:38:49;101654.91;;;16.76;100.00
78198;BME280;67472;51.554;7.812;2023-08-21T02:41:35;101668.69;;;16.71;100.00
78198;BME280;67472;51.554;7.812;2023-08-21T02:44:21;101666.88;;;16.62;100.00
78198;BME280;67472;51.554;7.812;2023-08-21T02:47:09;101671.78;;;16.57;100.00
78198;BME280;67472;51.554;7.812;2023-08-21T02:49:55;101671.31;;;16.52;100.00
78198;BME280;67472;51.554;7.812;2023-08-21T02:52:41;101677.53;;;16.62;100.00
78198;BME280;67472;51.554;7.812;2023-08-21T02:55:27;101682.03;;;16.62;100.00
78198;BME280;67472;51.554;7.812;2023-08-21T02:58:14;101677.41;;;16.54;100.00
78198;BME280;67472;51.554;7.812;2023-08-21T03:01:00;101680.59;;;16.48;100.00
78198;BME280;67472;51.554;7.812;2023-08-21T03:03:47;101675.38;;;16.37;100.00
78198;BME280;67472;51.554;7.812;2023-08-21T03:06:34;101678.34;;;16.24;100.00
78198;BME280;67472;51.554;7.812;2023-08-21T03:09:20;101669.75;;;16.11;100.00
78198;BME280;67472;51.554;7.812;2023-08-21T03:12:08;101676.38;;;16.26;100.00
78198;BME280;67472;51.554;7.812;2023-08-21T03:14:54;101681.28;;;16.21;100.00
78198;BME280;67472;51.554;7.812;2023-08-21T03:17:40;101684.22;;;16.18;100.00
78198;BME280;67472;51.554;7.812;2023-08-21T03:20:28;101689.84;;;16.15;100.00
78198;BME280;67472;51.554;7.812;2023-08-21T03:23:15;101695.88;;;16.17;100.00
78198;BME280;67472;51.554;7.812;2023-08-21T03:26:01;101699.97;;;16.31;100.00
78198;BME280;67472;51.554;7.812;2023-08-21T03:28:47;101693.06;;;16.28;100.00
78198;BME280;67472;51.554;7.812;2023-08-21T03:31:33;101695.03;;;16.26;100.00
78198;BME280;67472;51.554;7.812;2023-08-21T03:34:20;101696.72;;;16.37;100.00
78198;BME280;67472;51.554;7.812;2023-08-21T03:37:11;101699.81;;;16.52;100.00
78198;BME280;67472;51.554;7.812;2023-08-21T03:39:58;101699.69;;;16.44;100.00
78198;BME280;67472;51.554;7.812;2023-08-21T03:42:44;101690.41;;;16.38;100.00
78198;BME280;67472;51.554;7.812;2023-08-21T03:45:30;101691.97;;;16.40;100.00
78198;BME280;67472;51.554;7.812;2023-08-21T03:48:16;101694.19;;;16.26;100.00
78198;BME280;67472;51.554;7.812;2023-08-21T03:51:02;101689.31;;;16.31;100.00
78198;BME280;67472;51.554;7.812;2023-08-21T03:53:51;101692.66;;;16.33;100.00
78198;BME280;67472;51.554;7.812;2023-08-21T03:56:37;101696.88;;;16.35;100.00
78198;BME280;67472;51.554;7.812;2023-08-21T03:59:23;101704.91;;;16.55;100.00
78198;BME280;67472;51.554;7.812;2023-08-21T04:02:11;101705.88;;;16.63;100.00
78198;BME280;67472;51.554;7.812;2023-08-21T04:04:57;101711.66;;;16.68;100.00
78198;BME280;67472;51.554;7.812;2023-08-21T04:07:43;101717.41;;;16.83;100.00
78198;BME280;67472;51.554;7.812;2023-08-21T04:10:31;101724.69;;;16.90;100.00
78198;BME280;67472;51.554;7.812;2023-08-21T04:13:17;101723.00;;;16.89;100.00
78198;BME280;67472;51.554;7.812;2023-08-21T04:16:03;101717.25;;;16.84;100.00
78198;BME280;67472;51.554;7.812;2023-08-21T04:18:50;101715.03;;;16.80;100.00
78198;BME280;67472;51.554;7.812;2023-08-21T04:21:37;101720.09;;;16.83;100.00
78198;BME280;67472;51.554;7.812;2023-08-21T04:24:23;101715.84;;;16.90;100.00
78198;BME280;67472;51.554;7.812;2023-08-21T04:27:11;101706.72;;;16.92;100.00
78198;BME280;67472;51.554;7.812;2023-08-21T04:29:57;101700.84;;;16.60;100.00
78198;BME280;67472;51.554;7.812;2023-08-21T04:32:44;101700.13;;;16.58;100.00
78198;BME280;67472;51.554;7.812;2023-08-21T04:35:36;101707.28;;;16.48;100.00
78198;BME280;67472;51.554;7.812;2023-08-21T04:38:22;101711.19;;;16.34;100.00
78198;BME280;67472;51.554;7.812;2023-08-21T04:41:09;101714.41;;;16.28;100.00
78198;BME280;67472;51.554;7.812;2023-08-21T04:44:01;101719.06;;;16.36;100.00
78198;BME280;67472;51.554;7.812;2023-08-21T04:46:48;101721.84;;;16.25;100.00
78198;BME280;67472;51.554;7.812;2023-08-21T04:49:35;101735.34;;;16.33;100.00
78198;BME280;67472;51.554;7.812;2023-08-21T04:52:22;101745.59;;;16.47;100.00
78198;BME280;67472;51.554;7.812;2023-08-21T04:55:08;101738.56;;;16.46;100.00
78198;BME280;67472;51.554;7.812;2023-08-21T04:57:58;101741.09;;;16.48;100.00
78198;BME280;67472;51.554;7.812;2023-08-21T05:00:46;101753.50;;;16.68;100.00
78198;BME280;67472;51.554;7.812;2023-08-21T05:03:32;101769.38;;;16.79;100.00
78198;BME280;67472;51.554;7.812;2023-08-21T05:06:18;101765.44;;;16.92;100.00
78198;BME280;67472;51.554;7.812;2023-08-21T05:09:04;101769.91;;;17.02;100.00
78198;BME280;67472;51.554;7.812;2023-08-21T05:11:50;101769.63;;;17.14;100.00
78198;BME280;67472;51.554;7.812;2023-08-21T05:14:36;101761.47;;;17.25;100.00
78198;BME280;67472;51.554;7.812;2023-08-21T05:17:25;101748.63;;;17.38;100.00
78198;BME280;67472;51.554;7.812;2023-08-21T05:20:11;101747.53;;;17.31;100.00
78198;BME280;67472;51.554;7.812;2023-08-21T05:23:00;101746.09;;;17.46;100.00
78198;BME280;67472;51.554;7.812;2023-08-21T05:25:48;101744.28;;;17.37;100.00
78198;BME280;67472;51.554;7.812;2023-08-21T05:28:35;101731.22;;;17.34;100.00
78198;BME280;67472;51.554;7.812;2023-08-21T05:31:21;101728.38;;;17.45;100.00
78198;BME280;67472;51.554;7.812;2023-08-21T05:34:12;101733.16;;;17.61;100.00
78198;BME280;67472;51.554;7.812;2023-08-21T05:36:59;101738.59;;;17.96;100.00
78198;BME280;67472;51.554;7.812;2023-08-21T05:39:45;101731.31;;;18.16;100.00
78198;BME280;67472;51.554;7.812;2023-08-21T05:42:31;101719.69;;;18.52;100.00
78198;BME280;67472;51.554;7.812;2023-08-21T05:45:17;101721.50;;;18.87;100.00
78198;BME280;67472;51.554;7.812;2023-08-21T05:48:04;101711.81;;;19.12;100.00
78198;BME280;67472;51.554;7.812;2023-08-21T05:50:52;101694.44;;;19.42;100.00
78198;BME280;67472;51.554;7.812;2023-08-21T05:53:39;101663.84;;;19.44;100.00
78198;BME280;67472;51.554;7.812;2023-08-21T05:56:26;101650.13;;;19.47;100.00
78198;BME280;67472;51.554;7.812;2023-08-21T05:59:12;101630.91;;;19.34;100.00
78198;BME280;67472;51.554;7.812;2023-08-21T06:02:11;101610.69;;;19.06;100.00
78198;BME280;67472;51.554;7.812;2023-08-21T06:04:58;101597.56;;;18.95;100.00
78198;BME280;67472;51.554;7.812;2023-08-21T06:07:46;101592.44;;;18.84;100.00
78198;BME280;67472;51.554;7.812;2023-08-21T06:10:32;101598.97;;;18.81;100.00
78198;BME280;67472;51.554;7.812;2023-08-21T06:13:18;101610.53;;;18.82;100.00
78198;BME280;67472;51.554;7.812;2023-08-21T06:16:07;101618.47;;;18.91;100.00
78198;BME280;67472;51.554;7.812;2023-08-21T06:18:56;101626.81;;;19.22;100.00
78198;BME280;67472;51.554;7.812;2023-08-21T06:21:42;101623.97;;;19.49;100.00
78198;BME280;67472;51.554;7.812;2023-08-21T06:24:29;101617.38;;;19.78;100.00
78198;BME280;67472;51.554;7.812;2023-08-21T06:27:20;101603.28;;;19.76;100.00
78198;BME280;67472;51.554;7.812;2023-08-21T06:30:07;101599.78;;;19.91;100.00
78198;BME280;67472;51.554;7.812;2023-08-21T06:32:54;101581.72;;;20.09;100.00
78198;BME280;67472;51.554;7.812;2023-08-21T06:35:40;101562.25;;;20.23;100.00
78198;BME280;67472;51.554;7.812;2023-08-21T06:38:26;101551.22;;;20.18;100.00
78198;BME280;67472;51.554;7.812;2023-08-21T06:41:14;101529.09;;;20.16;100.00
78198;BME280;67472;51.554;7.812;2023-08-21T06:44:01;101507.78;;;20.39;100.00
78198;BME280;67472;51.554;7.812;2023-08-21T06:46:48;101507.69;;;20.79;100.00
78198;BME280;67472;51.554;7.812;2023-08-21T06:49:35;101520.69;;;21.07;100.00
78198;BME280;67472;51.554;7.812;2023-08-21T06:52:22;101498.09;;;20.85;100.00
78198;BME280;67472;51.554;7.812;2023-08-21T06:55:08;101472.13;;;20.69;100.00
78198;BME280;67472;51.554;7.812;2023-08-21T06:57:56;101482.22;;;21.06;100.00
78198;BME280;67472;51.554;7.812;2023-08-21T07:00:42;101468.47;;;21.09;100.00
78198;BME280;67472;51.554;7.812;2023-08-21T07:03:28;101457.97;;;21.22;100.00
78198;BME280;67472;51.554;7.812;2023-08-21T07:06:15;101437.56;;;21.05;100.00
78198;BME280;67472;51.554;7.812;2023-08-21T07:09:01;101434.03;;;21.05;100.00
78198;BME280;67472;51.554;7.812;2023-08-21T07:11:47;101437.63;;;21.28;100.00
78198;BME280;67472;51.554;7.812;2023-08-21T07:14:34;101429.94;;;21.48;100.00
78198;BME280;67472;51.554;7.812;2023-08-21T07:17:21;101425.88;;;21.52;100.00
78198;BME280;67472;51.554;7.812;2023-08-21T07:20:07;101427.16;;;22.01;100.00
78198;BME280;67472;51.554;7.812;2023-08-21T07:22:54;101409.63;;;22.05;100.00
78198;BME280;67472;51.554;7.812;2023-08-21T07:25:40;101398.56;;;22.00;100.00
78198;BME280;67472;51.554;7.812;2023-08-21T07:28:26;101398.59;;;22.15;100.00
78198;BME280;67472;51.554;7.812;2023-08-21T07:31:14;101403.22;;;22.21;100.00
78198;BME280;67472;51.554;7.812;2023-08-21T07:34:00;101413.16;;;22.49;100.00
78198;BME280;67472;51.554;7.812;2023-08-21T07:36:46;101399.19;;;22.69;100.00
78198;BME280;67472;51.554;7.812;2023-08-21T07:39:32;101399.16;;;22.25;100.00
78198;BME280;67472;51.554;7.812;2023-08-21T07:42:18;101408.16;;;22.32;100.00
78198;BME280;67472;51.554;7.812;2023-08-21T07:45:05;101400.19;;;22.38;100.00
78198;BME280;67472;51.554;7.812;2023-08-21T07:47:53;101405.03;;;22.72;100.00
78198;BME280;67472;51.554;7.812;2023-08-21T07:50:39;101399.66;;;22.93;100.00
78198;BME280;67472;51.554;7.812;2023-08-21T07:53:25;101389.09;;;22.92;100.00
78198;BME280;67472;51.554;7.812;2023-08-21T07:56:12;101398.09;;;23.20;100.00
78198;BME280;67472;51.554;7.812;2023-08-21T07:58:58;101390.81;;;22.99;100.00
78198;BME280;67472;51.554;7.812;2023-08-21T08:01:44;101388.53;;;23.18;100.00
78198;BME280;67472;51.554;7.812;2023-08-21T08:04:31;101390.66;;;23.01;100.00
78198;BME280;67472;51.554;7.812;2023-08-21T08:07:17;101392.47;;;23.15;100.00
78198;BME280;67472;51.554;7.812;2023-08-21T08:10:04;101394.25;;;23.29;100.00
78198;BME280;67472;51.554;7.812;2023-08-21T08:12:50;101384.28;;;23.08;100.00
78198;BME280;67472;51.554;7.812;2023-08-21T08:15:36;101386.88;;;22.95;100.00
78198;BME280;67472;51.554;7.812;2023-08-21T08:18:23;101388.63;;;23.24;100.00
78198;BME280;67472;51.554;7.812;2023-08-21T08:21:10;101384.84;;;23.40;100.00
78198;BME280;67472;51.554;7.812;2023-08-21T08:23:57;101374.41;;;23.79;100.00
78198;BME280;67472;51.554;7.812;2023-08-21T08:26:43;101371.75;;;23.86;100.00
78198;BME280;67472;51.554;7.812;2023-08-21T08:29:29;101367.44;;;23.42;100.00
78198;BME280;67472;51.554;7.812;2023-08-21T08:32:15;101381.84;;;23.49;100.00
78198;BME280;67472;51.554;7.812;2023-08-21T08:35:02;101380.97;;;23.70;100.00
78198;BME280;67472;51.554;7.812;2023-08-21T08:37:50;101371.06;;;23.77;100.00
78198;BME280;67472;51.554;7.812;2023-08-21T08:40:41;101359.97;;;23.66;100.00
78198;BME280;67472;51.554;7.812;2023-08-21T08:43:28;101359.09;;;23.58;100.00
78198;BME280;67472;51.554;7.812;2023-08-21T08:46:16;101361.16;;;23.56;100.00
78198;BME280;67472;51.554;7.812;2023-08-21T08:49:03;101367.38;;;23.57;100.00
78198;BME280;67472;51.554;7.812;2023-08-21T08:51:50;101360.78;;;23.59;100.00
78198;BME280;67472;51.554;7.812;2023-08-21T08:54:38;101366.03;;;23.68;100.00
78198;BME280;67472;51.554;7.812;2023-08-21T08:57:24;101360.03;;;23.72;100.00
78198;BME280;67472;51.554;7.812;2023-08-21T09:00:12;101361.25;;;23.70;100.00
78198;BME280;67472;51.554;7.812;2023-08-21T09:02:58;101358.50;;;23.91;100.00
78198;BME280;67472;51.554;7.812;2023-08-21T09:05:45;101362.44;;;24.16;100.00
78198;BME280;67472;51.554;7.812;2023-08-21T09:08:32;101356.00;;;24.17;100.00
78198;BME280;67472;51.554;7.812;2023-08-21T09:11:20;101354.75;;;24.54;100.00
78198;BME280;67472;51.554;7.812;2023-08-21T09:14:06;101351.03;;;24.21;100.00
78198;BME280;67472;51.554;7.812;2023-08-21T09:17:00;101359.63;;;24.31;100.00
78198;BME280;67472;51.554;7.812;2023-08-21T09:19:48;101350.91;;;24.35;100.00
78198;BME280;67472;51.554;7.812;2023-08-21T09:22:34;101361.34;;;24.45;100.00
78198;BME280;67472;51.554;7.812;2023-08-21T09:25:20;101350.41;;;24.59;100.00
78198;BME280;67472;51.554;7.812;2023-08-21T09:28:08;101337.53;;;24.68;100.00
78198;BME280;67472;51.554;7.812;2023-08-21T09:30:54;101346.53;;;24.82;100.00
78198;BME280;67472;51.554;7.812;2023-08-21T09:33:42;101356.41;;;25.28;100.00
78198;BME280;67472;51.554;7.812;2023-08-21T09:36:29;101332.94;;;25.42;100.00
78198;BME280;67472;51.554;7.812;2023-08-21T09:39:15;101337.94;;;25.71;100.00
78198;BME280;67472;51.554;7.812;2023-08-21T09:42:05;101332.94;;;25.88;100.00
78198;BME280;67472;51.554;7.812;2023-08-21T09:44:53;101318.75;;;25.86;100.00
78198;BME280;67472;51.554;7.812;2023-08-21T09:47:40;101321.81;;;26.29;100.00
78198;BME280;67472;51.554;7.812;2023-08-21T09:50:29;101325.19;;;26.69;100.00
78198;BME280;67472;51.554;7.812;2023-08-21T09:53:15;101306.00;;;26.26;100.00
78198;BME280;67472;51.554;7.812;2023-08-21T09:56:06;101308.09;;;25.98;100.00
78198;BME280;67472;51.554;7.812;2023-08-21T09:58:52;101317.53;;;25.82;100.00
78198;BME280;67472;51.554;7.812;2023-08-21T10:01:39;101328.31;;;26.08;100.00
78198;BME280;67472;51.554;7.812;2023-08-21T10:04:28;101309.13;;;26.10;100.00
78198;BME280;67472;51.554;7.812;2023-08-21T10:07:16;101314.53;;;26.10;100.00
78198;BME280;67472;51.554;7.812;2023-08-21T10:10:02;101301.63;;;26.12;100.00
78198;BME280;67472;51.554;7.812;2023-08-21T10:12:49;101302.59;;;26.37;100.00
78198;BME280;67472;51.554;7.812;2023-08-21T10:15:36;101307.75;;;26.52;100.00
78198;BME280;67472;51.554;7.812;2023-08-21T10:18:30;101319.63;;;26.95;100.00
78198;BME280;67472;51.554;7.812;2023-08-21T10:21:17;101298.66;;;27.09;100.00
78198;BME280;67472;51.554;7.812;2023-08-21T10:24:04;101304.75;;;27.04;100.00
78198;BME280;67472;51.554;7.812;2023-08-21T10:26:50;101284.28;;;26.70;97.99
78198;BME280;67472;51.554;7.812;2023-08-21T10:29:38;101289.75;;;26.64;97.32
78198;BME280;67472;51.554;7.812;2023-08-21T10:32:24;101297.94;;;26.95;98.14
78198;BME280;67472;51.554;7.812;2023-08-21T10:35:15;101290.41;;;27.53;96.74
78198;BME280;67472;51.554;7.812;2023-08-21T10:38:06;101275.94;;;27.10;92.02
78198;BME280;67472;51.554;7.812;2023-08-21T10:41:04;101289.38;;;27.23;96.15
78198;BME280;67472;51.554;7.812;2023-08-21T10:43:50;101271.81;;;27.01;92.34
78198;BME280;67472;51.554;7.812;2023-08-21T10:46:52;101309.69;;;27.14;98.27
78198;BME280;67472;51.554;7.812;2023-08-21T10:49:39;101314.09;;;27.64;100.00
78198;BME280;67472;51.554;7.812;2023-08-21T10:52:28;101294.88;;;27.16;91.61
78198;BME280;67472;51.554;7.812;2023-08-21T10:55:15;101292.16;;;26.85;89.79
78198;BME280;67472;51.554;7.812;2023-08-21T10:58:03;101304.47;;;26.87;96.26
78198;BME280;67472;51.554;7.812;2023-08-21T11:00:56;101296.25;;;26.94;91.67
78198;BME280;67472;51.554;7.812;2023-08-21T11:03:45;101286.97;;;26.77;92.93
78198;BME280;67472;51.554;7.812;2023-08-21T11:06:32;101291.53;;;26.83;95.92
78198;BME280;67472;51.554;7.812;2023-08-21T11:09:19;101283.94;;;27.23;95.69
78198;BME280;67472;51.554;7.812;2023-08-21T11:12:07;101285.09;;;27.09;90.83
78198;BME280;67472;51.554;7.812;2023-08-21T11:14:53;101282.47;;;27.27;91.72
78198;BME280;67472;51.554;7.812;2023-08-21T11:17:40;101289.91;;;27.63;93.23
78198;BME280;67472;51.554;7.812;2023-08-21T11:20:30;101287.94;;;27.70;90.52
78198;BME280;67472;51.554;7.812;2023-08-21T11:23:16;101276.06;;;27.46;86.59
78198;BME280;67472;51.554;7.812;2023-08-21T11:26:04;101293.16;;;27.71;89.28
78198;BME280;67472;51.554;7.812;2023-08-21T11:28:51;101289.13;;;28.35;85.59
78198;BME280;67472;51.554;7.812;2023-08-21T11:31:37;101280.59;;;28.13;82.61
78198;BME280;67472;51.554;7.812;2023-08-21T11:34:23;101265.78;;;27.91;79.16
78198;BME280;67472;51.554;7.812;2023-08-21T11:37:10;101289.72;;;28.00;83.68
78198;BME280;67472;51.554;7.812;2023-08-21T11:39:58;101270.75;;;28.30;78.18
78198;BME280;67472;51.554;7.812;2023-08-21T11:42:45;101282.88;;;29.05;80.55
78198;BME280;67472;51.554;7.812;2023-08-21T11:45:32;101276.47;;;29.53;81.22
78198;BME280;67472;51.554;7.812;2023-08-21T11:48:19;101255.16;;;29.27;76.03
78198;BME280;67472;51.554;7.812;2023-08-21T11:51:07;101279.88;;;28.84;79.80
78198;BME280;67472;51.554;7.812;2023-08-21T11:53:54;101300.59;;;28.19;85.55
78198;BME280;67472;51.554;7.812;2023-08-21T11:56:40;101294.38;;;27.93;83.81
78198;BME280;67472;51.554;7.812;2023-08-21T11:59:29;101291.66;;;27.93;85.74
78198;BME280;67472;51.554;7.812;2023-08-21T12:02:18;101282.63;;;27.99;82.85
78198;BME280;67472;51.554;7.812;2023-08-21T12:05:05;101262.16;;;27.79;79.20
78198;BME280;67472;51.554;7.812;2023-08-21T12:07:52;101281.31;;;27.84;82.76
78198;BME280;67472;51.554;7.812;2023-08-21T12:10:39;101304.72;;;28.39;86.80
78198;BME280;67472;51.554;7.812;2023-08-21T12:13:25;101273.31;;;29.14;81.11
78198;BME280;67472;51.554;7.812;2023-08-21T12:16:12;101278.75;;;29.14;84.59
78198;BME280;67472;51.554;7.812;2023-08-21T12:18:58;101278.47;;;28.63;78.70
78198;BME280;67472;51.554;7.812;2023-08-21T12:21:44;101290.03;;;28.29;82.63
78198;BME280;67472;51.554;7.812;2023-08-21T12:24:31;101283.69;;;28.94;83.57
78198;BME280;67472;51.554;7.812;2023-08-21T12:27:17;101276.06;;;28.25;79.59
78198;BME280;67472;51.554;7.812;2023-08-21T12:30:06;101277.31;;;27.68;81.08
78198;BME280;67472;51.554;7.812;2023-08-21T12:32:53;101279.69;;;27.58;84.37
78198;BME280;67472;51.554;7.812;2023-08-21T12:35:40;101285.50;;;27.37;86.83
78198;BME280;67472;51.554;7.812;2023-08-21T12:38:26;101291.00;;;27.30;86.62
78198;BME280;67472;51.554;7.812;2023-08-21T12:41:14;101294.03;;;27.16;91.47
78198;BME280;67472;51.554;7.812;2023-08-21T12:44:00;101292.59;;;27.38;94.10
78198;BME280;67472;51.554;7.812;2023-08-21T12:46:47;101287.13;;;27.87;92.12
78198;BME280;67472;51.554;7.812;2023-08-21T12:49:36;101259.66;;;27.95;82.42
78198;BME280;67472;51.554;7.812;2023-08-21T12:52:23;101259.06;;;27.93;82.37
78198;BME280;67472;51.554;7.812;2023-08-21T12:55:09;101258.59;;;27.78;82.17
78198;BME280;67472;51.554;7.812;2023-08-21T12:57:55;101294.50;;;28.23;89.81
78198;BME280;67472;51.554;7.812;2023-08-21T13:00:41;101284.88;;;28.02;90.53
78198;BME280;67472;51.554;7.812;2023-08-21T13:03:27;101279.13;;;27.92;88.95
78198;BME280;67472;51.554;7.812;2023-08-21T13:06:15;101272.66;;;27.93;85.05
78198;BME280;67472;51.554;7.812;2023-08-21T13:09:01;101261.19;;;28.10;81.79
78198;BME280;67472;51.554;7.812;2023-08-21T13:11:51;101266.91;;;28.38;82.75
78198;BME280;67472;51.554;7.812;2023-08-21T13:14:38;101273.44;;;28.96;87.55
78198;BME280;67472;51.554;7.812;2023-08-21T13:17:24;101255.84;;;28.69;80.95
78198;BME280;67472;51.554;7.812;2023-08-21T13:20:11;101244.28;;;29.38;78.66
78198;BME280;67472;51.554;7.812;2023-08-21T13:22:58;101243.97;;;28.93;78.53
78198;BME280;67472;51.554;7.812;2023-08-21T13:25:44;101257.06;;;28.85;80.28
78198;BME280;67472;51.554;7.812;2023-08-21T13:28:30;101256.59;;;28.76;79.25
78198;BME280;67472;51.554;7.812;2023-08-21T13:31:17;101252.34;;;28.62;78.37
78198;BME280;67472;51.554;7.812;2023-08-21T13:34:03;101272.66;;;28.78;82.88
78198;BME280;67472;51.554;7.812;2023-08-21T13:36:49;101260.56;;;28.74;80.08
78198;BME280;67472;51.554;7.812;2023-08-21T13:39:37;101245.53;;;28.71;75.74
78198;BME280;67472;51.554;7.812;2023-08-21T13:42:23;101244.84;;;28.64;75.77
78198;BME280;67472;51.554;7.812;2023-08-21T13:45:10;101252.75;;;29.07;78.86
78198;BME280;67472;51.554;7.812;2023-08-21T13:47:57;101261.38;;;29.04;80.83
78198;BME280;67472;51.554;7.812;2023-08-21T13:50:43;101239.66;;;28.74;76.48
78198;BME280;67472;51.554;7.812;2023-08-21T13:53:29;101262.34;;;28.80;80.14
78198;BME280;67472;51.554;7.812;2023-08-21T13:56:17;101254.16;;;29.09;79.66
78198;BME280;67472;51.554;7.812;2023-08-21T13:59:03;101241.88;;;29.19;80.73
78198;BME280;67472;51.554;7.812;2023-08-21T14:01:49;101231.84;;;29.42;76.91
78198;BME280;67472;51.554;7.812;2023-08-21T14:04:35;101235.13;;;28.68;76.37
78198;BME280;67472;51.554;7.812;2023-08-21T14:07:22;101239.19;;;28.59;77.39
78198;BME280;67472;51.554;7.812;2023-08-21T14:10:09;101212.72;;;28.84;75.74
78198;BME280;67472;51.554;7.812;2023-08-21T14:12:56;101236.38;;;28.84;79.59
78198;BME280;67472;51.554;7.812;2023-08-21T14:15:42;101238.44;;;29.23;80.66
78198;BME280;67472;51.554;7.812;2023-08-21T14:18:29;101239.00;;;28.90;81.73
78198;BME280;67472;51.554;7.812;2023-08-21T14:21:15;101232.50;;;28.62;80.61
78198;BME280;67472;51.554;7.812;2023-08-21T14:24:01;101237.81;;;28.27;81.57
78198;BME280;67472;51.554;7.812;2023-08-21T14:26:48;101240.72;;;28.25;82.59